メインページ
METAR-TAF:

METAR-TAF

空港 :

昆明, 中華人民共和国

昆明長水国際空港

緯度: 25-01N, 経度: 102-41E, 海抜: 1892m

現時点の気象観測

当レポートは22分前の17:00(UTC)に作成
北東の風 12kt
気温 5°C
湿度 93%
気圧 1027 hPa
視程: 8000m
高度500ftの雲はほとんどない
高度2000ftの雲は散在している, 積乱雲.
高度4300ftの千切れ雲あり
激しい雷雨

METAR: ZPPP 251700Z 05006MPS 8000 TS FEW005 SCT020CB BKN043 05/04 Q1027 NOSIG

時間: 01:22 (17:22 UTC)

予報

当レポートは4時間55分前の12:27(UTC)に作成
予報は25日の 12時(UTC)から 26日の 12時(UTC)まで有効
北東の風 12kt
視程10km以上
高度2600ftの雲は散在している
25日の 12時(UTC)から 25日の 14時(UTC)まで一時的に
高度2000ftの雲はほとんどない, 積乱雲.
高度2600ftの雲は散在している
激しい雷雨, 小雨

TAF: ZPPP 251227Z 2512/2612 04006MPS 9999 SCT026 TX16/2608Z TN06/2523Z TEMPO 2512/2514 -TSRA FEW020CB SCT026

4,000以上の空港の気象観測と天気予報(METAR報とTAF報)

利用可能な観測所は地図上に黄色い丸と赤い丸で示す。

丸の上にカーソルを重ねると観測所名を参照できる。

次にクリックすると気象観測と天気予報を参照できる。

マップの切り替え:黒色「×」印の緑ボタンをクリックして拡大、「-」印の緑ボタンをクリックして縮小、緑色の三角印をクリックして隣りの地図に切り替え


METAR-TAF: